KAPN/APN METAR and TAF weather

Enter ICAO airport designator
Station Type Date Time Source
KAPN METAR 2020/12/05 05:54 UTC NOAA

KAPN 050554Z AUTO 31007KT 10SM OVC020 M01/M05 A3002 RMK AO2 SLP175 T10111050 10000 21011 51015


Station Type Date Time Source
KAPN Decoded METAR 2020/12/05 05:54 UTC NOAA

ALPENA COUNTY REGIONAL AIRPORT, MI, United States (KAPN) 45-05N 083-34W 210M
Dec 05, 2020 - 12:54 AM EST / 2020.12.05 0554 UTC
Wind: from the NW (310 degrees) at 8 MPH (7 KT):0
Visibility: 10 mile(s):0
Sky conditions: overcast
Temperature: 30.0 F (-1.1 C)
Windchill: 23 F (-5 C):1
Dew Point: 23.0 F (-5.0 C)
Relative Humidity: 74%
Pressure (altimeter): 30.02 in. Hg (1016 hPa)
Pressure tendency: 0.04 inches (1.5 hPa) higher than three hours ago
ob: KAPN 050554Z AUTO 31007KT 10SM OVC020 M01/M05 A3002 RMK AO2 SLP175 T10111050 10000 21011 51015
cycle: 6

Station Type Date Time Source
KAPN TAF 2020/12/05 06:30 UTC NOAA

TAF KAPN 050527Z 0506/0606 33006KT P6SM BKN020
FM060000 33005KT P6SM BKN017
FM060400 VRB03KT P6SM BKN035

Example: see airport list